createdAt,value
2023-02-06T00:00:50.689Z,70.41
2023-02-06T00:03:18.238Z,71.72
2023-02-06T00:05:54.184Z,71.65
2023-02-06T00:08:21.455Z,69.85
2023-02-06T00:10:48.334Z,72.21
2023-02-06T00:13:16.492Z,69.73
2023-02-06T00:15:43.341Z,70.72
2023-02-06T00:18:10.104Z,73.89
2023-02-06T00:20:37.739Z,71.63
2023-02-06T00:23:05.012Z,72.29
2023-02-06T00:25:31.828Z,72.54
2023-02-06T00:27:58.585Z,72.30
2023-02-06T00:30:26.742Z,74.86
2023-02-06T00:32:53.548Z,74.13
2023-02-06T00:35:20.648Z,73.76
2023-02-06T00:37:47.385Z,73.18
2023-02-06T00:40:14.143Z,77.12
2023-02-06T00:42:40.867Z,72.60
2023-02-06T00:45:09.494Z,70.29
2023-02-06T00:47:37.630Z,71.19
2023-02-06T00:50:05.289Z,72.82
2023-02-06T00:52:32.060Z,72.88
2023-02-06T00:54:58.792Z,71.30
2023-02-06T00:57:25.612Z,71.04
2023-02-06T00:59:52.408Z,70.96
2023-02-06T01:02:19.135Z,68.42
2023-02-06T01:04:48.605Z,71.12
2023-02-06T01:07:15.405Z,72.57
2023-02-06T01:09:42.190Z,70.42
2023-02-06T01:12:08.987Z,74.29
2023-02-06T01:14:35.732Z,73.46
2023-02-06T01:17:02.504Z,72.54
2023-02-06T01:19:29.307Z,73.20
2023-02-06T01:21:57.771Z,72.88
2023-02-06T01:24:24.561Z,72.17
2023-02-06T01:26:51.342Z,71.02
2023-02-06T01:29:18.083Z,71.54
2023-02-06T01:31:44.892Z,71.26
2023-02-06T01:34:11.610Z,70.07
2023-02-06T01:36:38.522Z,71.12
2023-02-06T01:39:07.008Z,71.46
2023-02-06T01:41:33.965Z,72.59
2023-02-06T01:44:12.653Z,73.48
2023-02-06T01:46:41.197Z,73.72
2023-02-06T01:51:39.084Z,74.21
2023-02-06T01:54:08.589Z,74.29
2023-02-06T01:56:39.941Z,76.59
2023-02-06T01:59:06.844Z,75.68
2023-02-06T02:01:34.013Z,74.16
2023-02-06T02:04:05.683Z,73.33
2023-02-06T02:06:33.431Z,73.42
2023-02-06T02:09:01.954Z,75.75
2023-02-06T02:11:32.514Z,74.18
2023-02-06T02:14:00.567Z,77.21
2023-02-06T02:16:38.390Z,75.52
2023-02-06T02:19:47.475Z,73.66
2023-02-06T02:22:58.158Z,75.42
2023-02-06T02:25:58.679Z,75.57
2023-02-06T02:29:09.635Z,73.07
2023-02-06T02:32:11.422Z,73.31
2023-02-06T02:35:10.759Z,73.32
2023-02-06T02:37:49.426Z,74.69
2023-02-06T02:40:25.174Z,76.33
2023-02-06T02:43:01.587Z,74.60
2023-02-06T02:45:33.894Z,77.94
2023-02-06T02:48:06.901Z,76.17
2023-02-06T02:50:37.298Z,76.85
2023-02-06T02:53:04.287Z,77.18
2023-02-06T02:55:31.083Z,75.58
2023-02-06T02:58:03.618Z,73.51
2023-02-06T03:00:33.267Z,74.57
2023-02-06T03:03:00.104Z,75.68
2023-02-06T03:05:27.787Z,74.52
2023-02-06T03:08:10.893Z,74.26
2023-02-06T03:10:45.661Z,74.32
2023-02-06T03:13:17.592Z,77.07
2023-02-06T03:15:49.489Z,74.63
2023-02-06T03:18:19.818Z,73.93
2023-02-06T03:20:48.304Z,73.70
2023-02-06T03:23:20.171Z,74.14
2023-02-06T03:25:50.809Z,74.57
2023-02-06T03:28:22.553Z,74.79
2023-02-06T03:30:52.350Z,74.64
2023-02-06T03:33:22.860Z,75.27
2023-02-06T03:35:49.772Z,75.25
2023-02-06T03:38:18.284Z,75.83
2023-02-06T03:40:48.852Z,75.78
2023-02-06T03:43:17.896Z,76.54
2023-02-06T03:45:48.790Z,76.20
2023-02-06T03:48:21.546Z,77.54
2023-02-06T03:50:51.631Z,77.81
2023-02-06T03:53:22.847Z,76.41
2023-02-06T03:55:52.312Z,79.02
2023-02-06T03:58:19.131Z,76.79
2023-02-06T04:00:48.064Z,75.91
2023-02-06T04:03:15.419Z,76.40
2023-02-06T04:05:42.276Z,77.14
2023-02-06T04:08:09.985Z,76.49
2023-02-06T04:10:38.100Z,77.63
2023-02-06T04:13:04.929Z,75.85
2023-02-06T04:15:31.639Z,74.74
2023-02-06T04:18:01.105Z,75.37
2023-02-06T04:20:28.992Z,74.52
2023-02-06T04:22:55.906Z,75.35
2023-02-06T04:25:22.711Z,75.29
2023-02-06T04:27:51.258Z,74.39
2023-02-06T04:30:18.432Z,75.90
2023-02-06T04:32:45.384Z,75.54
2023-02-06T04:35:12.372Z,76.79
2023-02-06T04:37:39.187Z,77.28
2023-02-06T04:40:07.083Z,76.08
2023-02-06T04:42:33.839Z,77.00
2023-02-06T04:45:01.981Z,76.10
2023-02-06T04:47:28.707Z,77.03
2023-02-06T04:49:55.514Z,77.07
2023-02-06T04:52:22.241Z,77.35
2023-02-06T04:54:48.974Z,77.72
2023-02-06T04:57:15.724Z,76.68
2023-02-06T04:59:42.474Z,78.31
2023-02-06T05:02:10.565Z,78.58
2023-02-06T05:04:38.388Z,77.61
2023-02-06T05:07:05.676Z,77.32
2023-02-06T05:09:32.526Z,76.58
2023-02-06T05:11:59.445Z,78.94
2023-02-06T05:14:26.514Z,78.11
2023-02-06T05:16:53.234Z,80.59
2023-02-06T05:19:21.509Z,77.30
2023-02-06T05:21:48.224Z,77.70
2023-02-06T05:24:14.940Z,77.17
2023-02-06T05:26:41.831Z,76.40
2023-02-06T05:29:08.712Z,75.74
2023-02-06T05:31:35.740Z,76.27
2023-02-06T05:34:02.612Z,76.18
2023-02-06T05:36:30.783Z,75.94
2023-02-06T05:38:57.634Z,76.22
2023-02-06T05:41:24.491Z,76.58
2023-02-06T05:43:51.237Z,77.48
2023-02-06T05:46:18.076Z,77.20
2023-02-06T05:48:44.919Z,77.17
2023-02-06T05:51:11.839Z,77.86
2023-02-06T05:53:40.099Z,78.21
2023-02-06T05:56:07.189Z,76.90
2023-02-06T05:58:34.266Z,76.66
2023-02-06T06:01:01.100Z,76.93
2023-02-06T06:03:27.932Z,76.65
2023-02-06T06:05:54.891Z,76.34
2023-02-06T06:08:22.553Z,76.28
2023-02-06T06:10:52.016Z,78.11
2023-02-06T06:13:19.207Z,78.78
2023-02-06T06:15:46.110Z,78.79
2023-02-06T06:18:12.927Z,78.17
2023-02-06T06:20:39.695Z,77.27
2023-02-06T06:23:06.616Z,77.16
2023-02-06T06:25:35.268Z,77.39
2023-02-06T06:28:06.197Z,76.78
2023-02-06T06:30:35.425Z,77.72
2023-02-06T06:33:02.500Z,78.27
2023-02-06T06:35:29.508Z,77.00
2023-02-06T06:37:56.253Z,78.12
2023-02-06T06:40:23.220Z,76.72
2023-02-06T06:42:50.112Z,78.62
2023-02-06T06:45:18.378Z,78.38
2023-02-06T06:47:45.291Z,77.99
2023-02-06T06:50:12.057Z,78.28
2023-02-06T06:52:38.894Z,78.96
2023-02-06T06:55:06.383Z,77.91
2023-02-06T06:57:34.357Z,78.29
2023-02-06T07:00:01.100Z,80.72
2023-02-06T07:02:29.274Z,81.60
2023-02-06T07:04:56.084Z,80.12
2023-02-06T07:07:22.961Z,81.04
2023-02-06T07:09:49.792Z,79.89
2023-02-06T07:12:16.632Z,79.64
2023-02-06T07:14:43.344Z,78.54
2023-02-06T07:17:11.395Z,78.09
2023-02-06T07:19:39.639Z,78.31
2023-02-06T07:22:06.527Z,77.27
2023-02-06T07:24:33.319Z,79.96
2023-02-06T07:27:00.079Z,80.25
2023-02-06T07:29:26.874Z,80.04
2023-02-06T07:31:53.693Z,80.28
2023-02-06T07:34:20.538Z,79.54
2023-02-06T07:36:48.657Z,76.94
2023-02-06T07:39:15.412Z,78.19
2023-02-06T07:41:42.189Z,80.08
2023-02-06T07:44:10.422Z,77.15
2023-02-06T07:46:37.397Z,75.13
2023-02-06T07:49:04.205Z,79.54
2023-02-06T07:51:31.429Z,76.02
2023-02-06T07:53:59.824Z,74.77
2023-02-06T07:56:26.691Z,76.71
2023-02-06T07:58:54.726Z,74.03
2023-02-06T08:01:22.493Z,74.37
2023-02-06T08:03:49.788Z,71.77
2023-02-06T08:06:17.432Z,71.40
2023-02-06T08:08:45.131Z,71.34
2023-02-06T08:11:18.198Z,69.35
2023-02-06T08:13:46.147Z,69.04
2023-02-06T08:16:16.240Z,70.08
2023-02-06T08:18:43.391Z,69.53
2023-02-06T08:21:12.826Z,68.82
2023-02-06T08:23:39.756Z,69.12
2023-02-06T08:26:08.963Z,68.60
2023-02-06T08:28:37.824Z,67.35
2023-02-06T08:31:09.892Z,67.13
2023-02-06T08:33:36.784Z,66.14
2023-02-06T08:36:04.628Z,67.82
2023-02-06T08:38:31.333Z,66.73
2023-02-06T08:40:58.112Z,66.26
2023-02-06T08:43:24.900Z,66.04
2023-02-06T08:45:54.317Z,67.38
2023-02-06T08:48:21.045Z,65.26
2023-02-06T08:50:47.886Z,66.20
2023-02-06T08:53:14.611Z,67.84
2023-02-06T08:55:41.754Z,67.93
2023-02-06T08:58:08.887Z,66.55
2023-02-06T09:00:35.634Z,66.13
2023-02-06T09:03:04.700Z,66.64
2023-02-06T09:05:31.836Z,65.76
2023-02-06T09:07:58.591Z,65.58
2023-02-06T09:10:27.795Z,64.71
2023-02-06T09:12:57.301Z,64.28
2023-02-06T09:15:24.178Z,64.86
2023-02-06T09:17:51.077Z,64.49
2023-02-06T09:20:19.473Z,65.03
2023-02-06T09:22:46.351Z,64.53
2023-02-06T09:25:13.107Z,63.50
2023-02-06T09:27:39.922Z,62.20
2023-02-06T09:30:07.587Z,62.16
2023-02-06T09:32:34.307Z,62.81
2023-02-06T09:35:01.125Z,62.71
2023-02-06T09:37:29.698Z,62.52
2023-02-06T09:39:57.938Z,62.80
2023-02-06T09:42:31.837Z,63.21
2023-02-06T09:45:05.820Z,64.06
2023-02-06T09:47:33.484Z,65.05
2023-02-06T09:50:02.924Z,65.09
2023-02-06T09:52:42.601Z,64.27
2023-02-06T09:55:16.356Z,65.34
2023-02-06T09:57:49.731Z,65.48
2023-02-06T10:00:31.361Z,65.21
2023-02-06T10:03:16.653Z,64.88
2023-02-06T10:05:49.789Z,64.06
2023-02-06T10:08:22.828Z,64.55
2023-02-06T10:10:53.335Z,64.61
2023-02-06T10:13:25.427Z,64.18
2023-02-06T10:15:56.124Z,63.84
2023-02-06T10:18:28.334Z,63.92
2023-02-06T10:21:00.777Z,63.62
2023-02-06T10:23:36.194Z,63.21
2023-02-06T10:26:07.604Z,62.73
2023-02-06T10:28:34.632Z,63.26
2023-02-06T10:31:13.237Z,62.14
2023-02-06T10:33:50.051Z,61.45
2023-02-06T10:36:34.206Z,61.18
2023-02-06T10:39:29.549Z,59.05
2023-02-06T10:42:05.381Z,59.49
2023-02-06T10:44:37.463Z,59.56
2023-02-06T10:47:22.820Z,59.33
2023-02-06T10:49:56.951Z,59.09
2023-02-06T10:52:27.341Z,59.02
2023-02-06T10:54:58.982Z,58.73
2023-02-06T10:57:28.125Z,58.36
2023-02-06T10:59:59.805Z,57.98
2023-02-06T11:02:32.882Z,58.38
2023-02-06T11:05:07.052Z,57.80
2023-02-06T11:07:36.615Z,58.23
2023-02-06T11:10:05.837Z,58.01
2023-02-06T11:12:36.426Z,57.07
2023-02-06T11:15:09.052Z,57.54
2023-02-06T11:17:36.076Z,58.97
2023-02-06T11:20:17.048Z,59.10
2023-02-06T11:22:52.413Z,58.47
2023-02-06T11:25:27.211Z,57.62
2023-02-06T11:27:54.969Z,56.86
2023-02-06T11:30:29.592Z,56.38
2023-02-06T11:33:04.576Z,55.52
2023-02-06T11:35:35.291Z,54.07
2023-02-06T11:38:13.709Z,53.79
2023-02-06T11:40:42.368Z,53.41
2023-02-06T11:43:19.307Z,54.93
2023-02-06T11:45:47.116Z,55.06
2023-02-06T11:48:33.784Z,55.42
2023-02-06T11:51:01.026Z,55.15
2023-02-06T11:53:28.003Z,53.58
2023-02-06T11:56:02.671Z,52.81
2023-02-06T11:58:30.476Z,53.39
2023-02-06T12:01:00.800Z,53.08
2023-02-06T12:03:39.208Z,54.00
2023-02-06T12:06:13.108Z,53.70
2023-02-06T12:08:46.625Z,53.60
2023-02-06T12:11:22.168Z,53.80
2023-02-06T12:13:53.079Z,54.91
2023-02-06T12:16:22.877Z,54.68
2023-02-06T12:18:53.342Z,55.18
2023-02-06T12:21:25.436Z,55.59
2023-02-06T12:23:55.597Z,54.52
2023-02-06T12:26:27.306Z,54.42
2023-02-06T12:28:58.478Z,52.76
2023-02-06T12:31:31.840Z,53.22
2023-02-06T12:34:10.520Z,52.63
2023-02-06T12:36:44.102Z,51.75
2023-02-06T12:39:18.038Z,50.38
2023-02-06T12:42:00.941Z,51.02
2023-02-06T12:44:33.742Z,49.49
2023-02-06T12:47:07.445Z,49.60
2023-02-06T12:49:44.868Z,50.74
2023-02-06T12:52:17.902Z,52.05
2023-02-06T12:54:49.562Z,52.45
2023-02-06T12:57:22.459Z,53.26
2023-02-06T13:00:03.846Z,51.56
2023-02-06T13:03:02.477Z,51.71
2023-02-06T13:05:33.943Z,52.61
2023-02-06T13:08:07.136Z,52.14
2023-02-06T13:10:35.205Z,52.90
2023-02-06T13:13:03.885Z,53.16
2023-02-06T13:15:35.754Z,53.14
2023-02-06T13:18:02.919Z,53.35
2023-02-06T13:20:31.366Z,52.85
2023-02-06T13:23:22.865Z,52.50
2023-02-06T13:25:50.191Z,52.11
2023-02-06T13:28:56.870Z,52.11
2023-02-06T13:31:31.315Z,53.54
2023-02-06T13:34:01.693Z,55.77
2023-02-06T13:36:44.572Z,53.68
2023-02-06T13:39:23.176Z,53.83
2023-02-06T13:41:53.378Z,53.48
2023-02-06T13:44:26.530Z,53.72
2023-02-06T13:47:47.972Z,54.12
2023-02-06T13:50:33.839Z,53.51
2023-02-06T13:53:14.813Z,53.08
2023-02-06T13:56:00.381Z,52.52
2023-02-06T13:58:38.642Z,52.29
2023-02-06T14:01:14.277Z,51.61
2023-02-06T14:03:45.824Z,50.82
2023-02-06T14:06:37.264Z,49.45
2023-02-06T14:09:16.605Z,50.19
2023-02-06T14:11:57.285Z,51.72
2023-02-06T14:14:38.745Z,52.96
2023-02-06T14:17:16.802Z,53.17
2023-02-06T14:19:52.363Z,53.14
2023-02-06T14:22:31.639Z,53.47
2023-02-06T14:25:11.853Z,55.27
2023-02-06T14:27:58.578Z,53.55
2023-02-06T14:30:36.286Z,52.62
2023-02-06T14:33:18.556Z,52.50
2023-02-06T14:36:06.345Z,53.87
2023-02-06T14:39:15.361Z,54.50
2023-02-06T14:41:42.225Z,53.49
2023-02-06T14:44:13.115Z,52.35
2023-02-06T14:46:43.037Z,52.18
2023-02-06T14:49:16.895Z,53.12
2023-02-06T14:51:49.469Z,53.13
2023-02-06T14:54:29.655Z,53.25
2023-02-06T14:56:57.316Z,52.88
2023-02-06T14:59:24.375Z,52.39
2023-02-06T15:01:54.344Z,53.93
2023-02-06T15:04:23.820Z,53.42
2023-02-06T15:06:54.184Z,54.04
2023-02-06T15:09:26.656Z,52.95
2023-02-06T15:11:55.191Z,53.96
2023-02-06T15:14:25.043Z,53.65
2023-02-06T15:16:52.504Z,55.68
2023-02-06T15:19:21.630Z,56.40
2023-02-06T15:21:49.368Z,56.70
2023-02-06T15:24:32.398Z,58.11
2023-02-06T15:27:07.933Z,58.50
2023-02-06T15:29:35.650Z,58.91
2023-02-06T15:32:05.764Z,59.41
2023-02-06T15:34:32.675Z,61.82
2023-02-06T15:36:59.600Z,60.46
2023-02-06T15:39:28.189Z,61.70
2023-02-06T15:41:55.387Z,65.28
2023-02-06T15:44:31.448Z,66.74
2023-02-06T15:47:00.558Z,64.86
2023-02-06T15:49:35.408Z,67.31
2023-02-06T15:52:03.140Z,67.05
2023-02-06T15:54:31.788Z,67.06
2023-02-06T15:57:02.844Z,67.39
2023-02-06T15:59:33.243Z,63.49
2023-02-06T16:02:01.238Z,62.93
2023-02-06T16:04:30.905Z,62.85
2023-02-06T16:07:05.664Z,65.06
2023-02-06T16:09:39.574Z,66.65
2023-02-06T16:12:07.005Z,66.77
2023-02-06T16:14:35.676Z,70.08
2023-02-06T16:17:06.088Z,69.22
2023-02-06T16:19:45.596Z,68.87
2023-02-06T16:22:23.948Z,70.90
2023-02-06T16:24:54.329Z,73.01
2023-02-06T16:27:23.646Z,74.53
2023-02-06T16:29:53.029Z,73.13
2023-02-06T16:32:24.530Z,73.02
2023-02-06T16:34:52.210Z,74.27
2023-02-06T16:37:21.312Z,74.39
2023-02-06T16:39:48.205Z,75.67
2023-02-06T16:42:18.888Z,77.04
2023-02-06T16:44:49.679Z,75.46
2023-02-06T16:47:19.633Z,75.36
2023-02-06T16:49:47.100Z,73.60
2023-02-06T16:52:20.276Z,73.48
2023-02-06T16:54:48.134Z,75.18
2023-02-06T16:57:25.053Z,76.27
2023-02-06T16:59:51.935Z,77.75
2023-02-06T17:02:18.728Z,77.69
2023-02-06T17:04:45.584Z,77.53
2023-02-06T17:07:14.070Z,77.50
2023-02-06T17:09:41.918Z,78.07
2023-02-06T17:12:12.851Z,75.69
2023-02-06T17:14:41.935Z,75.22
2023-02-06T17:17:11.303Z,74.04
2023-02-06T17:19:38.432Z,76.90
2023-02-06T17:22:05.491Z,77.37
2023-02-06T17:24:32.402Z,76.53
2023-02-06T17:26:59.194Z,67.08
2023-02-06T17:29:25.939Z,66.57
2023-02-06T17:31:54.094Z,65.22
2023-02-06T17:34:20.865Z,70.25
2023-02-06T17:36:47.596Z,64.13
2023-02-06T17:39:14.516Z,68.20
2023-02-06T17:41:41.296Z,72.91
2023-02-06T17:44:08.017Z,74.45
2023-02-06T17:46:34.850Z,74.67
2023-02-06T17:49:03.024Z,76.42
2023-02-06T17:51:29.783Z,76.47
2023-02-06T17:53:56.545Z,75.29
2023-02-06T17:56:23.299Z,75.18
2023-02-06T17:58:50.149Z,74.32
2023-02-06T18:01:19.381Z,75.98
2023-02-06T18:03:47.901Z,75.59
2023-02-06T18:06:16.587Z,76.43
2023-02-06T18:08:43.699Z,76.84
2023-02-06T18:11:11.458Z,77.67
2023-02-06T18:13:38.402Z,78.40
2023-02-06T18:16:06.023Z,77.77
2023-02-06T18:18:33.668Z,79.20
2023-02-06T18:21:00.733Z,79.89
2023-02-06T18:23:28.931Z,78.32
2023-02-06T18:26:01.464Z,77.49
2023-02-06T18:28:28.394Z,76.52
2023-02-06T18:30:55.214Z,75.97
2023-02-06T18:33:22.010Z,76.90
2023-02-06T18:35:48.819Z,70.86
2023-02-06T18:38:16.113Z,67.13
2023-02-06T18:40:44.691Z,68.77
2023-02-06T18:43:12.490Z,71.51
2023-02-06T18:45:40.172Z,69.20
2023-02-06T18:48:09.256Z,70.36
2023-02-06T18:50:39.848Z,73.08
2023-02-06T18:53:06.897Z,75.09
2023-02-06T18:55:34.396Z,74.87
2023-02-06T18:58:02.734Z,75.81
2023-02-06T19:00:29.562Z,75.24
2023-02-06T19:02:58.126Z,75.46
2023-02-06T19:05:25.000Z,76.81
2023-02-06T19:07:53.112Z,78.28
2023-02-06T19:10:20.978Z,76.31
2023-02-06T19:12:47.864Z,76.75
2023-02-06T19:15:16.457Z,69.71
2023-02-06T19:17:43.291Z,66.49
2023-02-06T19:20:11.610Z,64.47
2023-02-06T19:22:39.068Z,65.54
2023-02-06T19:25:10.631Z,64.99
2023-02-06T19:27:38.332Z,66.05
2023-02-06T19:30:06.225Z,63.34
2023-02-06T19:32:34.911Z,64.20
2023-02-06T19:35:02.037Z,64.27
2023-02-06T19:37:28.872Z,63.66
2023-02-06T19:39:55.610Z,65.43
2023-02-06T19:42:22.506Z,71.06
2023-02-06T19:44:51.970Z,73.16
2023-02-06T19:47:18.808Z,72.69
2023-02-06T19:49:49.542Z,73.08
2023-02-06T19:52:16.271Z,74.40
2023-02-06T19:54:42.990Z,74.68
2023-02-06T19:57:09.750Z,75.06
2023-02-06T19:59:36.474Z,75.49
2023-02-06T20:02:03.317Z,76.35
2023-02-06T20:04:32.302Z,78.37
2023-02-06T20:07:01.230Z,78.48
2023-02-06T20:09:29.181Z,78.58
2023-02-06T20:11:56.954Z,76.86
2023-02-06T20:14:24.379Z,77.86
2023-02-06T20:16:52.601Z,78.61
2023-02-06T20:19:22.249Z,76.42
2023-02-06T20:21:51.977Z,79.02
2023-02-06T20:24:21.885Z,79.15
2023-02-06T20:26:50.532Z,78.12
2023-02-06T20:29:20.436Z,78.42
2023-02-06T20:31:47.918Z,78.03
2023-02-06T20:34:14.910Z,79.47
2023-02-06T20:36:42.104Z,79.15
2023-02-06T20:39:11.335Z,79.43
2023-02-06T20:41:40.219Z,79.58
2023-02-06T20:44:08.174Z,79.00
2023-02-06T20:46:36.626Z,80.30
2023-02-06T20:49:05.974Z,79.71
2023-02-06T20:51:32.779Z,81.07
2023-02-06T20:53:59.519Z,81.45
2023-02-06T20:56:27.145Z,81.34
2023-02-06T20:58:55.423Z,78.70
2023-02-06T21:01:23.904Z,78.72
2023-02-06T21:03:55.500Z,78.06
2023-02-06T21:06:22.702Z,79.54
2023-02-06T21:08:50.307Z,80.07
2023-02-06T21:11:18.617Z,80.67
2023-02-06T21:13:45.383Z,80.53
2023-02-06T21:16:13.752Z,81.93
2023-02-06T21:18:40.678Z,82.92
2023-02-06T21:21:09.816Z,81.61
2023-02-06T21:23:37.130Z,80.09
2023-02-06T21:26:05.666Z,80.51
2023-02-06T21:28:34.280Z,79.38
2023-02-06T21:31:03.586Z,78.57
2023-02-06T21:33:32.068Z,78.79
2023-02-06T21:36:00.832Z,78.72
2023-02-06T21:38:27.738Z,77.56
2023-02-06T21:40:54.578Z,77.93
2023-02-06T21:43:21.336Z,77.36
2023-02-06T21:45:48.382Z,77.46
2023-02-06T21:48:15.253Z,81.06
2023-02-06T21:50:43.544Z,78.36
2023-02-06T21:53:10.612Z,77.28
2023-02-06T21:55:41.911Z,77.42
2023-02-06T21:58:09.173Z,77.07
2023-02-06T22:00:36.429Z,77.20
2023-02-06T22:03:03.791Z,79.04
2023-02-06T22:05:30.600Z,79.88
2023-02-06T22:07:58.758Z,77.94
2023-02-06T22:10:25.732Z,78.40
2023-02-06T22:12:52.967Z,77.77
2023-02-06T22:15:20.072Z,78.52
2023-02-06T22:17:46.986Z,77.87
2023-02-06T22:20:16.418Z,77.28
2023-02-06T22:22:43.303Z,78.10
2023-02-06T22:25:11.575Z,78.62
2023-02-06T22:27:38.540Z,78.72
2023-02-06T22:30:06.222Z,77.81
2023-02-06T22:32:36.125Z,78.73
2023-02-06T22:35:04.152Z,78.45
2023-02-06T22:37:31.444Z,78.02
2023-02-06T22:39:58.193Z,78.14
2023-02-06T22:42:29.023Z,77.41
2023-02-06T22:44:55.882Z,77.11
2023-02-06T22:47:22.719Z,76.16
2023-02-06T22:49:50.840Z,76.74
2023-02-06T22:52:17.684Z,77.07
2023-02-06T22:54:44.497Z,77.49
2023-02-06T22:57:11.373Z,77.74
2023-02-06T22:59:39.767Z,77.12
2023-02-06T23:02:06.509Z,77.30
2023-02-06T23:04:33.476Z,78.48
2023-02-06T23:07:00.368Z,78.23
2023-02-06T23:09:29.642Z,77.31
2023-02-06T23:11:57.409Z,76.92
2023-02-06T23:14:24.768Z,76.82
2023-02-06T23:16:52.963Z,76.71
2023-02-06T23:19:20.287Z,78.25
2023-02-06T23:21:49.434Z,79.51
2023-02-06T23:24:17.010Z,77.24
2023-02-06T23:26:46.351Z,78.23
2023-02-06T23:29:15.052Z,78.48
2023-02-06T23:31:42.233Z,79.59
2023-02-06T23:34:10.423Z,79.73
2023-02-06T23:36:37.767Z,78.30
2023-02-06T23:39:05.178Z,78.19
2023-02-06T23:41:33.478Z,79.50
2023-02-06T23:44:02.138Z,79.05
2023-02-06T23:46:31.208Z,79.13
2023-02-06T23:48:58.445Z,79.23
2023-02-06T23:51:28.403Z,79.39
2023-02-06T23:53:55.188Z,81.38
2023-02-06T23:56:24.085Z,80.95
2023-02-06T23:58:52.489Z,80.83
